createdAt,value
2018-05-13T00:01:35.215Z,9.00
2018-05-13T00:04:02.726Z,9.23
2018-05-13T00:06:31.015Z,9.53
2018-05-13T00:08:59.271Z,9.77
2018-05-13T00:11:26.785Z,9.90
2018-05-13T00:13:54.316Z,10.13
2018-05-13T00:16:21.811Z,9.37
2018-05-13T00:18:49.303Z,10.10
2018-05-13T00:21:16.831Z,9.33
2018-05-13T00:23:44.336Z,11.03
2018-05-13T00:26:11.828Z,10.20
2018-05-13T00:28:39.356Z,9.83
2018-05-13T00:31:07.616Z,8.83
2018-05-13T00:33:35.114Z,10.07
2018-05-13T00:36:03.407Z,10.67
2018-05-13T00:38:31.672Z,10.50
2018-05-13T00:40:59.168Z,9.73
2018-05-13T00:43:27.459Z,9.53
2018-05-13T00:45:55.804Z,10.30
2018-05-13T00:48:23.299Z,9.80
2018-05-13T00:50:50.834Z,9.47
2018-05-13T00:53:18.337Z,11.07
2018-05-13T00:55:45.832Z,11.13
2018-05-13T00:58:13.376Z,10.97
2018-05-13T01:00:40.880Z,10.57
2018-05-13T01:03:08.396Z,11.60
2018-05-13T01:05:35.935Z,10.60
2018-05-13T01:08:03.440Z,10.83
2018-05-13T01:10:30.943Z,11.20
2018-05-13T01:12:59.238Z,10.47
2018-05-13T01:15:27.504Z,10.60
2018-05-13T01:17:55.052Z,11.10
2018-05-13T01:20:22.554Z,10.60
2018-05-13T01:22:50.062Z,10.73
2018-05-13T01:25:18.358Z,10.70
2018-05-13T01:27:45.869Z,23.00
2018-05-13T01:30:13.367Z,10.90
2018-05-13T01:32:41.673Z,11.47
2018-05-13T01:35:09.242Z,11.13
2018-05-13T01:37:36.735Z,10.57
2018-05-13T01:40:04.267Z,11.87
2018-05-13T01:42:32.528Z,9.70
2018-05-13T01:45:00.054Z,10.30
2018-05-13T01:47:27.583Z,12.00
2018-05-13T01:49:55.087Z,11.90
2018-05-13T01:52:22.627Z,10.87
2018-05-13T01:54:50.899Z,10.60
2018-05-13T01:57:18.408Z,10.63
2018-05-13T01:59:45.935Z,11.73
2018-05-13T02:02:13.439Z,10.30
2018-05-13T02:04:41.704Z,11.47
2018-05-13T02:07:09.232Z,10.37
2018-05-13T02:09:36.722Z,11.60
2018-05-13T02:12:04.210Z,10.63
2018-05-13T02:14:31.755Z,10.57
2018-05-13T02:16:59.255Z,11.20
2018-05-13T02:19:26.758Z,11.00
2018-05-13T02:21:54.293Z,10.13
2018-05-13T02:24:21.787Z,10.50
2018-05-13T02:26:50.048Z,12.00
2018-05-13T02:29:17.599Z,10.97
2018-05-13T02:31:45.100Z,10.97
2018-05-13T02:34:13.369Z,11.07
2018-05-13T02:36:40.902Z,11.50
2018-05-13T02:39:08.417Z,11.80
2018-05-13T02:41:35.916Z,11.07
2018-05-13T02:44:04.210Z,11.43
2018-05-13T02:46:32.471Z,11.90
2018-05-13T02:49:00.004Z,11.87
2018-05-13T02:51:27.498Z,11.90
2018-05-13T02:53:55.004Z,12.23
2018-05-13T02:56:23.310Z,12.57
2018-05-13T02:58:50.824Z,12.20
2018-05-13T03:01:18.318Z,12.00
2018-05-13T03:03:45.855Z,12.57
2018-05-13T03:06:13.368Z,11.70
2018-05-13T03:08:41.643Z,11.90
2018-05-13T03:11:09.182Z,11.97
2018-05-13T03:13:36.690Z,10.97
2018-05-13T03:16:04.190Z,11.57
2018-05-13T03:18:31.715Z,11.17
2018-05-13T03:20:59.218Z,11.43
2018-05-13T03:23:27.514Z,11.77
2018-05-13T03:25:55.770Z,10.83
2018-05-13T03:28:23.277Z,11.67
2018-05-13T03:30:50.818Z,11.00
2018-05-13T03:33:18.321Z,10.83
2018-05-13T03:35:45.835Z,11.47
2018-05-13T03:38:13.366Z,11.37
2018-05-13T03:40:40.866Z,12.70
2018-05-13T03:43:08.362Z,11.40
2018-05-13T03:45:35.894Z,11.33
2018-05-13T03:48:03.390Z,11.83
2018-05-13T03:50:30.895Z,11.47
2018-05-13T03:52:59.210Z,11.37
2018-05-13T03:55:26.719Z,12.23
2018-05-13T03:57:54.222Z,11.07
2018-05-13T04:00:22.533Z,13.07
2018-05-13T04:02:50.022Z,12.77
2018-05-13T04:05:17.526Z,12.47
2018-05-13T04:17:58.031Z,13.80
2018-05-13T04:20:25.527Z,13.33
2018-05-13T04:22:53.793Z,14.43
2018-05-13T04:25:21.322Z,13.63
2018-05-13T04:27:48.818Z,14.37
2018-05-13T04:30:16.310Z,14.57
2018-05-13T04:32:44.610Z,13.43
2018-05-13T04:35:12.879Z,15.13
2018-05-13T04:37:40.380Z,14.30
2018-05-13T04:40:07.907Z,14.53
2018-05-13T04:42:35.399Z,14.87
2018-05-13T04:45:03.690Z,13.70
2018-05-13T04:47:31.945Z,15.10
2018-05-13T04:49:59.438Z,15.13
2018-05-13T04:52:26.964Z,15.97
2018-05-13T04:54:54.459Z,15.67
2018-05-13T04:57:21.947Z,15.10
2018-05-13T04:59:49.475Z,14.67
2018-05-13T05:02:16.972Z,15.27
2018-05-13T05:04:44.470Z,15.93
2018-05-13T05:07:12.779Z,14.90
2018-05-13T05:09:40.282Z,15.13
2018-05-13T05:12:07.776Z,15.17
2018-05-13T05:14:35.303Z,15.13
2018-05-13T05:17:02.799Z,15.07
2018-05-13T05:19:30.327Z,14.67
2018-05-13T05:21:57.818Z,15.27
2018-05-13T05:24:25.310Z,14.43
2018-05-13T05:26:52.835Z,14.17
2018-05-13T05:29:21.087Z,14.60
2018-05-13T05:31:48.580Z,15.60
2018-05-13T05:34:16.893Z,15.53
2018-05-13T05:36:44.395Z,13.40
2018-05-13T05:39:11.887Z,14.60
2018-05-13T05:41:39.425Z,14.83
2018-05-13T05:44:06.932Z,14.67
2018-05-13T05:46:34.418Z,13.93
2018-05-13T05:49:01.935Z,14.87
2018-05-13T05:51:29.427Z,13.57
2018-05-13T05:53:56.921Z,14.57
2018-05-13T05:56:24.450Z,14.33
2018-05-13T05:58:51.942Z,16.73
2018-05-13T06:01:19.474Z,17.17
2018-05-13T06:03:46.974Z,13.80
2018-05-13T06:06:14.495Z,16.57
2018-05-13T06:08:42.789Z,14.33
2018-05-13T06:11:10.291Z,13.50
2018-05-13T06:13:37.786Z,14.53
2018-05-13T06:16:05.327Z,15.33
2018-05-13T06:18:32.825Z,15.03
2018-05-13T06:21:00.322Z,17.50
2018-05-13T06:23:28.628Z,14.63
2018-05-13T06:25:56.119Z,14.30
2018-05-13T06:28:23.619Z,14.13
2018-05-13T06:30:51.138Z,13.27
2018-05-13T06:33:19.409Z,14.40
2018-05-13T06:35:46.944Z,13.27
2018-05-13T06:38:14.446Z,14.20
2018-05-13T06:40:41.938Z,15.67
2018-05-13T06:43:09.477Z,13.87
2018-05-13T06:45:36.978Z,12.63
2018-05-13T06:48:05.235Z,14.50
2018-05-13T06:50:32.774Z,15.00
2018-05-13T06:53:00.274Z,14.87
2018-05-13T06:55:27.757Z,15.90
2018-05-13T06:57:55.273Z,15.80
2018-05-13T07:00:22.762Z,15.77
2018-05-13T07:02:50.331Z,17.57
2018-05-13T07:05:17.791Z,15.83
2018-05-13T07:07:45.291Z,18.63
2018-05-13T07:10:12.795Z,17.67
2018-05-13T07:12:41.094Z,16.00
2018-05-13T07:15:08.587Z,16.70
2018-05-13T07:17:36.088Z,16.50
2018-05-13T07:20:03.627Z,17.17
2018-05-13T07:22:31.891Z,17.33
2018-05-13T07:24:59.383Z,15.40
2018-05-13T07:27:26.917Z,16.87
2018-05-13T07:29:55.187Z,18.50
2018-05-13T07:32:22.686Z,16.67
2018-05-13T07:34:50.975Z,18.00
2018-05-13T07:37:19.237Z,16.13
2018-05-13T07:39:46.751Z,17.27
2018-05-13T07:42:15.061Z,18.00
2018-05-13T07:44:42.549Z,18.50
2018-05-13T07:47:10.048Z,18.10
2018-05-13T07:49:38.349Z,18.30
2018-05-13T07:52:06.626Z,18.30
2018-05-13T07:54:34.890Z,17.77
2018-05-13T07:57:02.418Z,16.83
2018-05-13T07:59:29.915Z,26.50
2018-05-13T08:01:57.446Z,23.50
2018-05-13T08:04:24.943Z,18.03
2018-05-13T08:06:52.447Z,17.23
2018-05-13T08:09:19.978Z,20.93
2018-05-13T08:11:47.479Z,16.50
2018-05-13T08:14:14.967Z,16.13
2018-05-13T08:16:42.511Z,16.37
2018-05-13T08:19:10.008Z,16.23
2018-05-13T08:21:37.511Z,16.70
2018-05-13T08:24:05.053Z,18.37
2018-05-13T08:26:32.546Z,17.90
2018-05-13T08:29:00.799Z,18.03
2018-05-13T08:31:28.315Z,17.93
2018-05-13T08:33:55.810Z,28.17
2018-05-13T08:36:23.307Z,30.73
2018-05-13T08:38:50.838Z,23.90
2018-05-13T08:41:19.099Z,18.50
2018-05-13T08:43:47.351Z,17.33
2018-05-13T08:46:14.882Z,16.60
2018-05-13T08:48:42.383Z,18.07
2018-05-13T08:51:09.878Z,16.53
2018-05-13T08:53:37.415Z,17.50
2018-05-13T08:56:04.908Z,16.83
2018-05-13T08:58:32.404Z,18.10
2018-05-13T09:01:00.704Z,17.53
2018-05-13T09:03:28.965Z,21.80
2018-05-13T09:05:56.468Z,24.53
2018-05-13T09:08:24.049Z,18.70
2018-05-13T09:10:52.291Z,18.03
2018-05-13T09:13:19.787Z,17.77
2018-05-13T09:15:47.330Z,17.10
2018-05-13T09:18:15.610Z,17.60
2018-05-13T09:20:43.142Z,17.10
2018-05-13T09:23:10.647Z,16.97
2018-05-13T09:25:38.147Z,17.33
2018-05-13T09:28:06.415Z,14.10
2018-05-13T09:30:33.933Z,16.27
2018-05-13T09:33:01.477Z,16.03
2018-05-13T09:35:29.774Z,16.17
2018-05-13T09:37:58.035Z,17.07
2018-05-13T09:40:25.536Z,16.33
2018-05-13T09:42:53.830Z,15.70
2018-05-13T09:45:21.327Z,15.63
2018-05-13T09:47:48.823Z,12.80
2018-05-13T09:50:16.377Z,11.50
2018-05-13T09:52:44.649Z,12.07
2018-05-13T09:55:12.146Z,11.40
2018-05-13T09:57:39.757Z,11.57
2018-05-13T10:00:07.184Z,13.30
2018-05-13T10:02:34.680Z,11.37
2018-05-13T10:05:02.217Z,12.17
2018-05-13T10:07:29.719Z,13.03
2018-05-13T10:09:57.213Z,11.97
2018-05-13T10:12:25.509Z,13.77
2018-05-13T10:14:53.761Z,13.20
2018-05-13T10:17:21.263Z,13.23
2018-05-13T10:19:49.565Z,12.50
2018-05-13T10:22:17.064Z,14.27
2018-05-13T10:24:44.567Z,18.37
2018-05-13T10:27:12.125Z,15.90
2018-05-13T10:29:39.613Z,14.63
2018-05-13T10:32:07.106Z,16.70
2018-05-13T10:34:35.410Z,15.30
2018-05-13T10:37:02.897Z,13.97
2018-05-13T10:39:30.394Z,11.87
2018-05-13T10:41:57.913Z,13.03
2018-05-13T10:44:25.423Z,14.00
2018-05-13T10:46:52.905Z,13.20
2018-05-13T10:49:20.423Z,14.53
2018-05-13T10:51:47.919Z,13.13
2018-05-13T10:54:15.446Z,14.13
2018-05-13T10:56:42.940Z,15.20
2018-05-13T10:59:10.447Z,15.00
2018-05-13T11:01:37.983Z,15.40
2018-05-13T11:04:05.495Z,13.53
2018-05-13T11:06:32.999Z,14.83
2018-05-13T11:09:01.298Z,12.57
2018-05-13T11:11:29.575Z,21.70
2018-05-13T11:13:57.856Z,15.50
2018-05-13T11:16:25.387Z,16.57
2018-05-13T11:18:52.928Z,14.23
2018-05-13T11:21:20.422Z,13.90
2018-05-13T11:23:47.950Z,11.70
2018-05-13T11:26:16.212Z,13.80
2018-05-13T11:28:43.718Z,12.43
2018-05-13T11:31:11.256Z,13.13
2018-05-13T11:33:38.759Z,13.30
2018-05-13T11:36:07.020Z,13.60
2018-05-13T11:38:34.575Z,13.80
2018-05-13T11:41:02.067Z,27.57
2018-05-13T11:43:29.573Z,13.50
2018-05-13T11:45:57.122Z,13.57
2018-05-13T11:48:25.389Z,13.20
2018-05-13T11:50:52.883Z,12.17
2018-05-13T11:53:21.186Z,13.80
2018-05-13T11:55:48.691Z,14.17
2018-05-13T11:58:16.199Z,12.50
2018-05-13T12:00:43.732Z,12.27
2018-05-13T12:03:11.235Z,14.40
2018-05-13T12:05:38.736Z,14.67
2018-05-13T12:08:06.287Z,13.53
2018-05-13T12:10:34.559Z,14.57
2018-05-13T12:13:02.068Z,13.50
2018-05-13T12:15:29.594Z,11.90
2018-05-13T12:17:57.117Z,12.90
2018-05-13T12:20:24.655Z,12.50
2018-05-13T12:22:52.923Z,13.47
2018-05-13T12:25:20.419Z,12.43
2018-05-13T12:27:48.712Z,13.80
2018-05-13T12:30:16.232Z,13.70
2018-05-13T12:32:43.738Z,13.83
2018-05-13T12:35:11.271Z,12.50
2018-05-13T12:37:38.767Z,12.43
2018-05-13T12:40:06.264Z,12.47
2018-05-13T12:42:34.570Z,12.97
2018-05-13T12:45:02.059Z,12.37
2018-05-13T12:47:29.550Z,11.80
2018-05-13T12:49:57.088Z,13.03
2018-05-13T12:52:24.578Z,12.60
2018-05-13T12:54:52.078Z,12.93
2018-05-13T12:57:19.610Z,14.27
2018-05-13T12:59:47.114Z,14.17
2018-05-13T13:02:14.612Z,12.93
2018-05-13T13:04:42.909Z,12.80
2018-05-13T13:07:11.158Z,12.03
2018-05-13T13:09:38.699Z,11.83
2018-05-13T13:12:06.187Z,12.80
2018-05-13T13:14:33.683Z,12.70
2018-05-13T13:17:01.211Z,13.77
2018-05-13T13:19:28.711Z,12.30
2018-05-13T13:21:56.207Z,13.50
2018-05-13T13:24:24.498Z,13.70
2018-05-13T13:26:52.759Z,12.10
2018-05-13T13:29:20.263Z,11.60
2018-05-13T13:31:48.564Z,13.07
2018-05-13T13:34:16.057Z,11.63
2018-05-13T13:36:43.626Z,11.43
2018-05-13T13:39:11.103Z,11.80
2018-05-13T13:41:38.603Z,11.77
2018-05-13T13:44:06.103Z,13.50
2018-05-13T13:46:34.416Z,13.30
2018-05-13T13:49:01.923Z,11.63
2018-05-13T13:51:29.440Z,13.60
2018-05-13T13:53:57.745Z,20.83
2018-05-13T13:56:25.232Z,16.40
2018-05-13T13:58:52.723Z,11.73
2018-05-13T14:01:20.243Z,12.07
2018-05-13T14:03:48.503Z,12.10
2018-05-13T14:06:16.042Z,11.93
2018-05-13T14:08:43.563Z,11.87
2018-05-13T14:11:11.845Z,12.40
2018-05-13T14:13:40.128Z,12.67
2018-05-13T14:16:08.414Z,12.87
2018-05-13T14:18:35.907Z,12.40
2018-05-13T14:21:03.399Z,11.23
2018-05-13T14:23:30.927Z,11.40
2018-05-13T14:25:58.418Z,11.07
2018-05-13T14:28:26.675Z,11.53
2018-05-13T14:30:54.201Z,10.03
2018-05-13T14:33:21.711Z,9.90
2018-05-13T14:35:49.207Z,9.10
2018-05-13T14:38:17.495Z,9.40
2018-05-13T14:40:45.750Z,9.30
2018-05-13T14:43:13.262Z,8.73
2018-05-13T14:45:40.781Z,9.27
2018-05-13T14:48:08.271Z,8.73
2018-05-13T14:50:35.764Z,7.73
2018-05-13T14:53:04.059Z,7.00
2018-05-13T14:55:31.550Z,6.60
2018-05-13T14:57:59.069Z,6.03
2018-05-13T15:00:26.571Z,5.90
2018-05-13T15:02:54.818Z,6.53
2018-05-13T15:05:22.303Z,6.23
2018-05-13T15:07:49.831Z,7.10
2018-05-13T15:10:17.335Z,5.57
2018-05-13T15:12:44.835Z,5.50
2018-05-13T15:15:12.349Z,6.50
2018-05-13T15:17:39.835Z,5.97
2018-05-13T15:20:07.339Z,6.90
2018-05-13T15:22:35.650Z,6.37
2018-05-13T15:25:03.898Z,6.60
2018-05-13T15:27:31.427Z,9.47
2018-05-13T15:29:58.915Z,8.60
2018-05-13T15:32:26.400Z,5.07
2018-05-13T15:34:53.926Z,5.90
2018-05-13T15:37:21.481Z,5.07
2018-05-13T15:39:48.920Z,5.20
2018-05-13T15:42:16.451Z,5.87
2018-05-13T15:44:43.946Z,5.13
2018-05-13T15:47:11.591Z,5.50
2018-05-13T15:49:39.126Z,5.80
2018-05-13T15:52:07.387Z,14.60
2018-05-13T15:54:34.886Z,15.03
2018-05-13T15:57:02.416Z,7.03
2018-05-13T15:59:29.910Z,5.30
2018-05-13T16:02:01.237Z,5.20
2018-05-13T16:04:28.807Z,5.53
2018-05-13T16:06:56.300Z,5.33
2018-05-13T16:09:23.802Z,6.60
2018-05-13T16:11:51.335Z,5.20
2018-05-13T16:14:19.039Z,5.80
2018-05-13T16:16:57.519Z,4.40
2018-05-13T16:19:25.825Z,4.63
2018-05-13T16:21:53.350Z,4.40
2018-05-13T16:24:20.851Z,4.13
2018-05-13T16:29:25.684Z,4.80
2018-05-13T16:31:53.203Z,4.90
2018-05-13T16:34:20.686Z,5.57
2018-05-13T16:36:48.210Z,11.57
2018-05-13T16:39:15.707Z,20.40
2018-05-13T16:41:43.196Z,5.73
2018-05-13T16:44:10.731Z,4.73
2018-05-13T16:46:38.226Z,4.00
2018-05-13T16:49:05.719Z,3.87
2018-05-13T16:51:33.257Z,4.30
2018-05-13T16:54:00.748Z,4.20
2018-05-13T16:56:28.236Z,4.63
2018-05-13T16:58:55.758Z,4.10
2018-05-13T17:01:24.038Z,3.93
2018-05-13T17:03:51.539Z,4.77
2018-05-13T17:06:19.058Z,4.47
2018-05-13T17:08:47.307Z,4.37
2018-05-13T17:11:14.799Z,4.00
2018-05-13T17:13:43.095Z,4.30
2018-05-13T17:16:11.355Z,3.77
2018-05-13T17:18:38.849Z,4.20
2018-05-13T17:21:07.139Z,5.33
2018-05-13T17:23:35.606Z,4.97
2018-05-13T17:26:03.667Z,6.50
2018-05-13T17:28:31.210Z,6.80
2018-05-13T17:30:58.711Z,5.47
2018-05-13T17:33:26.195Z,4.80
2018-05-13T17:35:53.819Z,5.63
2018-05-13T17:38:23.360Z,5.00
2018-05-13T17:40:50.889Z,4.50
2018-05-13T17:43:19.163Z,4.83
2018-05-13T17:45:46.686Z,4.40
2018-05-13T17:48:14.211Z,6.77
2018-05-13T17:50:41.785Z,4.07
2018-05-13T17:53:09.279Z,3.50
2018-05-13T17:55:37.378Z,5.90
2018-05-13T17:58:04.879Z,5.40
2018-05-13T18:00:32.387Z,12.20
2018-05-13T18:03:00.775Z,8.83
2018-05-13T18:05:28.192Z,5.70
2018-05-13T18:07:57.250Z,5.10
2018-05-13T18:10:24.775Z,8.60
2018-05-13T18:12:52.284Z,4.80
2018-05-13T18:15:19.792Z,5.00
2018-05-13T18:17:47.314Z,5.70
2018-05-13T18:20:15.041Z,5.67
2018-05-13T18:22:42.990Z,4.80
2018-05-13T18:25:10.719Z,5.97
2018-05-13T18:27:39.036Z,5.23
2018-05-13T18:30:06.579Z,5.60
2018-05-13T18:32:34.280Z,5.47
2018-05-13T18:35:01.857Z,5.80
2018-05-13T18:37:30.386Z,5.90
2018-05-13T18:39:57.875Z,5.83
2018-05-13T18:42:25.957Z,5.43
2018-05-13T18:44:53.556Z,6.13
2018-05-13T18:47:21.051Z,6.80
2018-05-13T18:49:48.539Z,7.00
2018-05-13T18:52:16.861Z,7.67
2018-05-13T18:54:44.343Z,8.03
2018-05-13T18:57:11.882Z,13.03
2018-05-13T18:59:39.391Z,16.20
2018-05-13T19:02:06.895Z,13.83
2018-05-13T19:04:34.382Z,8.50
2018-05-13T19:07:01.930Z,9.43
2018-05-13T19:09:29.418Z,9.40
2018-05-13T19:11:56.942Z,11.90
2018-05-13T19:14:24.494Z,9.47
2018-05-13T19:16:52.004Z,10.00
2018-05-13T19:19:19.691Z,9.57
2018-05-13T19:21:47.236Z,9.07
2018-05-13T19:24:15.565Z,8.60
2018-05-13T19:26:43.069Z,8.60
2018-05-13T19:29:10.615Z,9.97
2018-05-13T19:31:38.872Z,9.00
2018-05-13T19:34:06.359Z,9.00
2018-05-13T19:36:33.888Z,10.47
2018-05-13T19:39:01.380Z,9.90
2018-05-13T19:41:28.869Z,8.70
2018-05-13T19:43:56.381Z,8.93
2018-05-13T19:46:23.877Z,9.27
2018-05-13T19:48:51.367Z,9.80
2018-05-13T19:51:18.897Z,9.60
2018-05-13T19:53:46.433Z,9.73
2018-05-13T19:56:14.687Z,9.47
2018-05-13T19:58:42.215Z,11.83
2018-05-13T20:01:09.711Z,10.20
2018-05-13T20:03:37.273Z,10.73
2018-05-13T20:06:04.783Z,10.60
2018-05-13T20:08:32.283Z,12.23
2018-05-13T20:10:59.767Z,10.90
2018-05-13T20:13:27.296Z,10.23
2018-05-13T20:15:54.802Z,11.13
2018-05-13T20:18:22.307Z,10.73
2018-05-13T20:20:50.251Z,11.07
2018-05-13T20:23:25.624Z,11.00
2018-05-13T20:25:53.781Z,10.60
2018-05-13T20:28:22.795Z,11.30
2018-05-13T20:30:51.047Z,10.13
2018-05-13T20:33:18.579Z,10.80
2018-05-13T20:35:46.071Z,10.07
2018-05-13T20:38:13.559Z,9.43
2018-05-13T20:40:41.075Z,8.80
2018-05-13T20:43:08.563Z,7.70
2018-05-13T20:45:36.050Z,8.60
2018-05-13T20:48:03.566Z,9.50
2018-05-13T20:50:31.065Z,8.50
2018-05-13T20:52:58.570Z,7.90
2018-05-13T20:55:27.083Z,10.40
2018-05-13T20:57:54.575Z,6.60
2018-05-13T21:00:22.103Z,6.97
2018-05-13T21:02:49.592Z,11.50
2018-05-13T21:05:17.914Z,9.70
2018-05-13T21:07:45.395Z,7.07
2018-05-13T21:10:12.882Z,7.13
2018-05-13T21:12:40.379Z,8.40
2018-05-13T21:15:07.892Z,8.03
2018-05-13T21:17:35.379Z,8.80
2018-05-13T21:20:03.803Z,7.53
2018-05-13T21:22:31.281Z,7.30
2018-05-13T21:24:58.771Z,12.17
2018-05-13T21:27:26.287Z,7.10
2018-05-13T21:29:53.766Z,9.60
2018-05-13T21:32:21.255Z,8.17
2018-05-13T21:34:48.766Z,7.33
2018-05-13T21:37:17.019Z,7.47
2018-05-13T21:39:44.544Z,9.03
2018-05-13T21:42:12.041Z,8.20
2018-05-13T21:44:39.528Z,7.67
2018-05-13T21:47:07.068Z,6.23
2018-05-13T21:49:34.548Z,7.97
2018-05-13T21:52:02.813Z,6.10
2018-05-13T21:54:30.371Z,5.50
2018-05-13T21:56:57.890Z,5.53
2018-05-13T21:59:25.386Z,5.87
2018-05-13T22:01:52.907Z,6.20
2018-05-13T22:04:21.162Z,6.10
2018-05-13T22:06:49.418Z,5.20
2018-05-13T22:09:16.942Z,6.10
2018-05-13T22:11:44.427Z,6.80
2018-05-13T22:14:11.923Z,5.50
2018-05-13T22:16:39.443Z,4.67
2018-05-13T22:19:06.933Z,4.53
2018-05-13T22:21:34.426Z,4.27
2018-05-13T22:24:01.943Z,4.07
2018-05-13T22:26:30.192Z,4.27
2018-05-13T22:28:57.671Z,4.53
2018-05-13T22:31:25.184Z,4.90
2018-05-13T22:33:52.674Z,4.17
2018-05-13T22:36:20.160Z,5.00
2018-05-13T22:38:47.674Z,5.20
2018-05-13T22:41:15.918Z,5.50
2018-05-13T22:43:43.414Z,6.00
2018-05-13T22:46:10.944Z,6.23
2018-05-13T22:48:38.427Z,5.70
2018-05-13T22:51:05.918Z,6.63
2018-05-13T22:53:33.448Z,6.40
2018-05-13T22:56:00.935Z,6.37
2018-05-13T22:58:28.482Z,6.80
2018-05-13T23:00:55.945Z,8.93
2018-05-13T23:03:23.432Z,7.00
2018-05-13T23:05:50.911Z,7.07
2018-05-13T23:08:18.423Z,6.63
2018-05-13T23:10:45.919Z,5.87
2018-05-13T23:13:14.176Z,6.80
2018-05-13T23:15:41.699Z,6.70
2018-05-13T23:18:09.178Z,5.80
2018-05-13T23:20:36.663Z,6.43
2018-05-13T23:23:04.181Z,6.20
2018-05-13T23:25:32.435Z,6.03
2018-05-13T23:27:59.919Z,5.50
2018-05-13T23:30:28.441Z,5.83
2018-05-13T23:32:55.897Z,5.60
2018-05-13T23:35:24.150Z,5.90
2018-05-13T23:37:51.671Z,5.80
2018-05-13T23:40:19.159Z,6.00
2018-05-13T23:42:46.644Z,6.07
2018-05-13T23:45:14.171Z,5.60
2018-05-13T23:47:42.426Z,5.97
2018-05-13T23:50:09.915Z,6.53
2018-05-13T23:52:37.427Z,6.70
2018-05-13T23:55:04.910Z,7.43
2018-05-13T23:57:32.407Z,6.47
2018-05-13T23:59:59.917Z,6.80
